Terminal Aerodrome Forecast
Issued by NWS Green Bay, WI

Home | Current Version | Previous Version | Text Only | Print | Product List | Glossary On
Versions: 1 2 3 4 5 6 7 8 9 10 11 12 13 14 15 16 17 18 19 20 21 22 23 24 25 26 27 28 29
000
FTUS43 KGRB 212339
TAFGRB
TAF
KGRB 212339Z 2200/2224 21006KT P6SM BKN250
     FM220300 18006KT P6SM SCT120 BKN250 WS009/22035KT
     FM221400 21008KT P6SM SCT120
     FM222000 18006KT P6SM BKN120=

USA.gov is the U.S. government's official web portal to all federal, state and local government web resources and services.